Time;durP1;ratioP1;P1;durP2;ratioP2;P2;SDS_P1;SDS_P2;PMS_P1;PMS_P2;Temp;Humidity;BMP_temperature;BMP_pressure;BME280_temperature;BME280_humidity;BME280_pressure;Samples;Min_cycle;Max_cycle;Signal;HPM_P1;HPM_P2
2022/05/22 00:01:51;;;;;;;3.13;1.50;;;15.30;80.10;;;;;;5029928;28;20079;-78
2022/05/22 00:04:16;;;;;;;3.40;1.73;;;15.30;80.30;;;;;;5010016;28;20224;-78
2022/05/22 00:06:42;;;;;;;2.20;1.50;;;15.30;80.10;;;;;;5019464;28;20033;-78
2022/05/22 00:09:08;;;;;;;2.40;1.42;;;15.20;80.10;;;;;;4998991;28;20327;-78
2022/05/22 00:11:33;;;;;;;2.80;1.53;;;15.20;80.10;;;;;;5026588;28;20037;-79
2022/05/22 00:13:59;;;;;;;4.15;1.60;;;15.20;80.30;;;;;;5014885;28;20568;-78
2022/05/22 00:16:37;;;;;;;4.30;1.70;;;15.10;81.10;;;;;;5024363;28;20071;-78
2022/05/22 00:19:10;;;;;;;3.28;1.60;;;15.10;80.40;;;;;;5025262;28;20467;-78
2022/05/22 00:21:37;;;;;;;3.65;1.80;;;15.10;80.30;;;;;;5030617;28;20116;-78
2022/05/22 00:24:05;;;;;;;2.45;1.70;;;15.00;80.30;;;;;;5017778;28;20751;-78
2022/05/22 00:26:30;;;;;;;2.03;1.50;;;15.00;80.40;;;;;;5030529;28;20420;-78
2022/05/22 00:28:56;;;;;;;4.75;1.77;;;14.90;80.40;;;;;;5016857;28;20037;-78
2022/05/22 00:31:21;;;;;;;4.07;1.83;;;14.90;80.60;;;;;;5016330;28;20049;-78
2022/05/22 00:33:47;;;;;;;3.63;1.70;;;14.80;80.60;;;;;;5028875;28;20163;-78
2022/05/22 00:36:13;;;;;;;3.50;1.60;;;14.80;80.60;;;;;;5019067;28;20271;-78
2022/05/22 00:38:39;;;;;;;3.53;1.52;;;14.80;80.70;;;;;;5004648;28;20029;-78
2022/05/22 00:41:06;;;;;;;2.77;1.53;;;14.70;80.80;;;;;;5019714;28;20222;-78
2022/05/22 00:43:33;;;;;;;3.30;1.52;;;14.70;81.00;;;;;;5040341;28;20041;-78
2022/05/22 00:46:01;;;;;;;3.20;1.70;;;14.70;81.10;;;;;;5025175;28;20036;-78
2022/05/22 00:48:27;;;;;;;3.13;1.67;;;14.70;81.20;;;;;;5017242;28;20055;-78
2022/05/22 00:50:59;;;;;;;3.58;1.80;;;14.60;81.10;;;;;;5021745;28;20025;-78
2022/05/22 00:53:26;;;;;;;3.10;1.60;;;14.60;81.00;;;;;;5031924;28;20060;-78
2022/05/22 00:55:53;;;;;;;3.20;1.90;;;14.60;81.10;;;;;;5001986;28;20517;-78
2022/05/22 00:58:24;;;;;;;2.75;1.67;;;14.50;81.00;;;;;;5036198;28;20261;-78
2022/05/22 01:00:50;;;;;;;3.35;1.70;;;14.50;81.20;;;;;;5037439;28;20084;-78
2022/05/22 01:03:31;;;;;;;2.67;1.80;;;14.50;81.30;;;;;;5053414;28;20225;-78
2022/05/22 01:06:06;;;;;;;2.47;1.50;;;14.40;81.20;;;;;;5008275;28;20072;-78
2022/05/22 01:08:33;;;;;;;2.47;1.77;;;14.40;81.20;;;;;;5012787;28;20035;-78
2022/05/22 01:11:03;;;;;;;2.88;1.42;;;14.30;81.20;;;;;;5027946;28;20040;-78
2022/05/22 01:13:42;;;;;;;2.63;1.67;;;14.30;81.20;;;;;;5042046;28;20041;-78
2022/05/22 01:16:08;;;;;;;2.65;1.67;;;14.30;81.80;;;;;;5034803;28;20336;-78
2022/05/22 01:18:49;;;;;;;2.00;1.50;;;14.30;81.30;;;;;;5036732;28;20405;-78
2022/05/22 01:21:20;;;;;;;3.25;1.83;;;14.20;81.20;;;;;;5010459;28;20199;-78
2022/05/22 01:23:47;;;;;;;2.53;1.70;;;14.20;81.40;;;;;;5047445;28;20044;-78
2022/05/22 01:26:13;;;;;;;2.88;1.65;;;14.10;81.60;;;;;;4998914;28;20191;-78
2022/05/22 01:28:39;;;;;;;2.50;1.60;;;14.10;81.70;;;;;;5034676;28;20060;-78
2022/05/22 01:31:05;;;;;;;2.30;1.45;;;14.10;81.80;;;;;;5035919;28;20657;-78
2022/05/22 01:33:33;;;;;;;3.05;1.73;;;14.10;82.00;;;;;;5039966;28;20037;-78
2022/05/22 01:35:59;;;;;;;2.33;1.50;;;14.10;82.00;;;;;;5020092;28;20040;-78
2022/05/22 01:38:25;;;;;;;3.05;1.70;;;14.00;82.00;;;;;;5025010;28;20072;-78
2022/05/22 01:40:51;;;;;;;2.92;1.70;;;14.00;82.10;;;;;;5018026;28;20444;-78
2022/05/22 01:43:16;;;;;;;2.53;1.57;;;14.00;82.20;;;;;;5046049;28;20086;-78
2022/05/22 01:45:43;;;;;;;3.08;1.60;;;13.90;82.40;;;;;;5021235;28;20183;-78
2022/05/22 01:48:10;;;;;;;2.08;1.58;;;13.90;82.60;;;;;;5022516;28;20087;-78
2022/05/22 01:50:36;;;;;;;2.70;1.60;;;13.90;82.70;;;;;;5037273;28;20033;-78
2022/05/22 01:53:05;;;;;;;2.80;1.63;;;13.90;82.90;;;;;;5031023;28;20264;-78
2022/05/22 01:55:32;;;;;;;2.75;1.80;;;13.90;83.10;;;;;;4995551;28;20644;-78
2022/05/22 01:57:58;;;;;;;2.10;1.52;;;13.90;83.10;;;;;;5004162;28;20029;-78
2022/05/22 02:00:26;;;;;;;4.57;1.80;;;13.90;83.10;;;;;;5001880;28;20433;-78
2022/05/22 02:02:55;;;;;;;2.40;1.60;;;13.90;83.10;;;;;;5008663;28;20022;-78
2022/05/22 02:05:21;;;;;;;2.58;1.80;;;13.90;83.00;;;;;;5008369;28;20076;-78
2022/05/22 02:10:31;;;;;;;3.10;1.50;;;13.90;82.90;;;;;;5021129;28;20037;-78
2022/05/22 02:12:57;;;;;;;2.97;1.63;;;13.90;82.80;;;;;;4975659;28;20171;-78
2022/05/22 02:15:24;;;;;;;2.35;1.75;;;13.90;82.70;;;;;;5008613;28;20041;-78
2022/05/22 02:17:50;;;;;;;2.08;1.52;;;13.80;82.70;;;;;;4998040;28;20230;-78
2022/05/22 02:20:16;;;;;;;3.25;1.60;;;13.80;82.70;;;;;;4999337;28;20033;-78
2022/05/22 02:22:48;;;;;;;2.60;1.50;;;13.80;82.70;;;;;;5006951;28;20040;-78
2022/05/22 02:25:17;;;;;;;2.53;1.70;;;13.70;82.60;;;;;;5006543;28;20033;-78
2022/05/22 02:27:43;;;;;;;3.30;1.60;;;13.70;82.70;;;;;;5003894;28;20033;-78
2022/05/22 02:30:13;;;;;;;2.75;1.65;;;13.70;82.80;;;;;;5012364;28;20033;-78
2022/05/22 02:32:38;;;;;;;2.90;1.60;;;13.70;82.90;;;;;;5019847;28;20047;-78
2022/05/22 02:35:07;;;;;;;2.93;1.53;;;13.60;82.90;;;;;;5001834;28;20046;-78
2022/05/22 02:37:43;;;;;;;2.25;1.60;;;13.60;82.90;;;;;;4995820;28;20517;-78
2022/05/22 02:40:09;;;;;;;2.17;1.40;;;13.50;83.10;;;;;;5010647;28;20039;-78
2022/05/22 02:42:42;;;;;;;3.17;1.50;;;13.60;82.90;;;;;;4989518;28;20125;-78
2022/05/22 02:45:09;;;;;;;2.30;1.53;;;13.50;83.00;;;;;;5020428;28;20122;-78
2022/05/22 02:47:35;;;;;;;2.10;1.30;;;13.40;83.00;;;;;;5016470;28;20037;-78
2022/05/22 02:50:01;;;;;;;2.92;1.58;;;13.40;83.10;;;;;;5019197;28;20273;-78
2022/05/22 02:52:27;;;;;;;2.75;1.48;;;13.40;83.20;;;;;;5019041;28;20534;-78
2022/05/22 02:54:53;;;;;;;3.27;1.50;;;13.40;83.20;;;;;;5009497;28;20037;-78
2022/05/22 02:57:22;;;;;;;2.63;1.48;;;13.40;83.30;;;;;;5038680;28;20056;-78
2022/05/22 02:59:52;;;;;;;2.27;1.50;;;13.30;83.20;;;;;;5020744;28;20036;-78
2022/05/22 03:02:18;;;;;;;2.50;1.40;;;13.30;83.20;;;;;;5034051;28;20060;-78
2022/05/22 03:04:44;;;;;;;3.05;1.50;;;13.30;83.40;;;;;;5016239;28;20033;-78
2022/05/22 03:07:14;;;;;;;2.03;1.50;;;13.20;83.30;;;;;;5030181;28;20232;-78
2022/05/22 03:09:41;;;;;;;1.77;1.40;;;13.20;83.30;;;;;;5013526;28;20025;-78
2022/05/22 03:12:09;;;;;;;1.75;1.30;;;13.20;83.40;;;;;;5032969;28;20061;-78
2022/05/22 03:14:35;;;;;;;1.80;1.40;;;13.20;83.40;;;;;;5015681;28;20025;-78
2022/05/22 03:17:01;;;;;;;2.17;1.60;;;13.10;83.30;;;;;;5028095;28;20154;-78
2022/05/22 03:19:26;;;;;;;1.92;1.40;;;13.10;83.30;;;;;;5025861;28;20025;-78
2022/05/22 03:21:52;;;;;;;2.72;1.60;;;13.10;83.30;;;;;;5013919;28;20029;-78
2022/05/22 03:24:18;;;;;;;3.57;1.70;;;13.00;83.30;;;;;;5017590;28;20148;-78
2022/05/22 03:26:44;;;;;;;4.03;1.40;;;13.00;83.50;;;;;;5046357;28;20086;-78
2022/05/22 03:29:09;;;;;;;1.85;1.38;;;13.00;83.50;;;;;;5001883;28;20047;-78
2022/05/22 03:31:35;;;;;;;2.60;1.40;;;12.90;83.50;;;;;;5024296;28;20021;-78
2022/05/22 03:34:00;;;;;;;2.47;1.50;;;12.90;83.50;;;;;;5013753;28;20033;-78
2022/05/22 03:36:26;;;;;;;1.90;1.38;;;12.90;83.60;;;;;;5031564;28;20037;-78
2022/05/22 03:38:52;;;;;;;1.83;1.40;;;12.80;83.60;;;;;;5011498;28;20668;-78
2022/05/22 03:41:17;;;;;;;3.35;1.60;;;12.80;83.70;;;;;;5027785;28;20032;-78
2022/05/22 03:43:43;;;;;;;1.70;1.23;;;12.80;84.50;;;;;;5021720;28;20041;-78
2022/05/22 03:46:09;;;;;;;2.67;1.50;;;12.80;83.90;;;;;;5027828;28;20107;-78
2022/05/22 03:48:34;;;;;;;1.63;1.17;;;12.80;84.00;;;;;;5036001;28;20037;-78
2022/05/22 03:51:00;;;;;;;2.15;1.40;;;12.70;84.00;;;;;;5035566;28;20251;-78
2022/05/22 03:53:26;;;;;;;2.17;1.50;;;12.70;84.00;;;;;;5025217;28;20734;-78
2022/05/22 03:55:51;;;;;;;2.55;1.58;;;12.70;84.00;;;;;;5013713;28;20067;-78
2022/05/22 03:58:18;;;;;;;2.00;1.50;;;12.70;84.10;;;;;;5012066;28;20402;-78
2022/05/22 04:00:44;;;;;;;2.50;1.50;;;12.70;84.10;;;;;;4993404;28;20092;-78
2022/05/22 04:03:10;;;;;;;2.22;1.40;;;12.70;85.00;;;;;;5005554;28;20528;-78
2022/05/22 04:05:36;;;;;;;2.30;1.33;;;12.60;84.10;;;;;;5022933;28;20036;-78
2022/05/22 04:08:01;;;;;;;1.92;1.42;;;12.70;84.30;;;;;;4994419;28;20176;-78
2022/05/22 04:10:27;;;;;;;3.07;1.33;;;12.70;84.40;;;;;;5019468;28;20044;-78
2022/05/22 04:12:53;;;;;;;1.73;1.23;;;12.60;84.30;;;;;;5005928;28;20039;-78
2022/05/22 04:15:21;;;;;;;2.13;1.40;;;12.60;85.10;;;;;;4983270;28;20037;-78
2022/05/22 04:17:46;;;;;;;3.58;1.60;;;12.60;84.60;;;;;;5016039;28;20042;-78
2022/05/22 04:20:13;;;;;;;2.00;1.48;;;12.60;84.60;;;;;;4998465;28;20037;-78
2022/05/22 04:25:23;;;;;;;1.50;1.27;;;12.60;84.90;;;;;;5022583;28;20053;-78
2022/05/22 04:27:50;;;;;;;3.17;1.50;;;12.60;85.00;;;;;;5011455;28;20060;-78
2022/05/22 04:30:20;;;;;;;2.08;1.50;;;12.60;85.00;;;;;;5005246;28;20037;-78
2022/05/22 04:32:50;;;;;;;2.13;1.50;;;12.60;85.10;;;;;;5016110;28;20033;-78
2022/05/22 04:35:17;;;;;;;2.90;1.60;;;12.60;85.20;;;;;;5010946;28;20092;-78
2022/05/22 04:37:43;;;;;;;2.10;1.40;;;12.60;85.40;;;;;;5012467;28;20346;-78
2022/05/22 04:40:12;;;;;;;2.38;1.55;;;12.70;85.60;;;;;;4997895;28;20037;-78
2022/05/22 04:42:39;;;;;;;2.17;1.60;;;12.60;85.60;;;;;;5006601;28;20303;-78
2022/05/22 04:45:07;;;;;;;3.85;1.60;;;12.70;85.80;;;;;;5019231;28;20034;-78
2022/05/22 04:47:41;;;;;;;2.28;1.55;;;12.70;85.90;;;;;;4992247;28;20045;-78
2022/05/22 04:50:08;;;;;;;2.40;1.77;;;12.70;85.80;;;;;;5013205;28;20084;-78
2022/05/22 04:52:34;;;;;;;2.60;1.70;;;12.70;85.90;;;;;;5006503;28;20033;-78
2022/05/22 04:55:00;;;;;;;2.20;1.67;;;12.80;86.10;;;;;;5004840;28;20710;-78
2022/05/22 04:57:25;;;;;;;3.20;1.87;;;12.80;86.20;;;;;;5005355;28;20080;-78
2022/05/22 04:59:51;;;;;;;2.80;1.77;;;12.80;86.40;;;;;;4978509;28;20053;-78
2022/05/22 05:02:17;;;;;;;3.63;1.80;;;12.90;86.40;;;;;;4984032;28;20307;-78
2022/05/22 05:04:42;;;;;;;3.15;2.10;;;12.90;86.40;;;;;;4994580;28;20041;-78
2022/05/22 05:07:09;;;;;;;3.23;2.10;;;12.90;86.60;;;;;;5023038;28;20038;-78
2022/05/22 05:09:36;;;;;;;2.38;1.73;;;13.00;86.60;;;;;;4998371;28;20033;-78
2022/05/22 05:12:03;;;;;;;2.83;1.88;;;13.00;86.80;;;;;;5004333;28;20202;-78
2022/05/22 05:14:28;;;;;;;3.03;1.70;;;13.00;86.90;;;;;;5003441;28;20041;-80
2022/05/22 05:16:54;;;;;;;2.17;1.67;;;13.00;87.00;;;;;;5012835;28;20032;-80
2022/05/22 05:19:20;;;;;;;3.65;2.05;;;13.10;87.20;;;;;;5013794;28;20528;-80
2022/05/22 05:21:46;;;;;;;2.70;1.80;;;13.20;87.40;;;;;;4994752;28;20037;-80
2022/05/22 05:24:11;;;;;;;3.28;1.90;;;13.20;87.60;;;;;;5015266;28;20052;-78
2022/05/22 05:26:37;;;;;;;3.23;2.17;;;13.20;87.70;;;;;;5015610;28;20148;-78
2022/05/22 05:29:03;;;;;;;2.47;1.90;;;13.30;87.80;;;;;;5017085;28;20371;-78
2022/05/22 05:31:28;;;;;;;3.30;1.93;;;13.40;88.00;;;;;;4994076;28;20443;-78
2022/05/22 05:33:54;;;;;;;4.83;2.10;;;13.40;88.00;;;;;;5020166;28;20171;-78
2022/05/22 05:36:19;;;;;;;4.00;2.17;;;13.50;88.10;;;;;;5006572;28;20285;-78
2022/05/22 05:38:45;;;;;;;3.67;2.23;;;13.60;88.30;;;;;;5018842;28;20030;-78
2022/05/22 05:41:11;;;;;;;3.20;2.40;;;13.70;88.50;;;;;;4995411;28;20124;-78
2022/05/22 05:43:37;;;;;;;3.37;2.17;;;13.80;88.60;;;;;;5018350;28;20073;-78
2022/05/22 05:46:03;;;;;;;4.35;2.50;;;13.80;89.30;;;;;;5006133;28;20153;-78
2022/05/22 05:48:29;;;;;;;3.25;2.20;;;13.80;88.60;;;;;;5000722;28;20095;-78
2022/05/22 05:50:55;;;;;;;3.65;2.33;;;13.90;88.60;;;;;;4998625;28;20263;-78
2022/05/22 05:53:21;;;;;;;6.97;3.00;;;14.00;89.40;;;;;;4997715;28;20041;-78
2022/05/22 05:55:47;;;;;;;3.75;2.70;;;14.00;88.70;;;;;;5022187;28;20072;-78
2022/05/22 05:58:13;;;;;;;4.22;2.65;;;14.10;89.00;;;;;;5023916;28;20152;-78
2022/05/22 06:00:39;;;;;;;5.00;2.95;;;14.10;89.00;;;;;;5033994;28;20539;-78
2022/05/22 06:03:07;;;;;;;4.05;2.90;;;14.20;89.10;;;;;;5009536;28;20033;-78
2022/05/22 06:05:32;;;;;;;4.37;2.77;;;14.30;89.20;;;;;;5015658;28;20039;-78
2022/05/22 06:07:58;;;;;;;5.32;2.85;;;14.30;89.40;;;;;;5010260;28;20385;-78
2022/05/22 06:10:24;;;;;;;5.90;3.03;;;14.40;89.50;;;;;;5039526;28;20083;-78
2022/05/22 06:12:49;;;;;;;5.47;3.00;;;14.50;89.70;;;;;;5021830;28;20045;-78
2022/05/22 06:15:15;;;;;;;4.67;2.97;;;14.60;90.00;;;;;;5026666;28;20044;-78
2022/05/22 06:17:44;;;;;;;5.20;2.85;;;14.70;90.00;;;;;;5019242;28;20033;-78
2022/05/22 06:20:12;;;;;;;6.63;3.08;;;14.80;90.10;;;;;;5020899;28;20064;-78
2022/05/22 06:22:37;;;;;;;5.20;2.83;;;14.90;90.20;;;;;;5016436;28;20578;-78
2022/05/22 06:25:06;;;;;;;5.30;3.20;;;15.00;90.20;;;;;;5000369;28;20040;-78
2022/05/22 06:27:32;;;;;;;5.43;3.20;;;15.10;90.10;;;;;;5005042;28;20381;-78
2022/05/22 06:29:57;;;;;;;6.00;2.90;;;15.20;90.10;;;;;;5032404;28;20043;-78
2022/05/22 06:32:24;;;;;;;5.88;3.03;;;15.30;90.10;;;;;;5004835;28;20033;-78
2022/05/22 06:34:50;;;;;;;4.80;3.00;;;15.40;90.10;;;;;;5016649;28;20368;-78
2022/05/22 06:37:21;;;;;;;6.85;3.55;;;15.50;90.20;;;;;;5032103;28;20033;-78
2022/05/22 06:39:50;;;;;;;4.70;3.10;;;15.50;90.10;;;;;;5009581;28;20181;-78
2022/05/22 06:42:28;;;;;;;4.65;3.25;;;15.60;90.20;;;;;;5004054;28;20056;-78
2022/05/22 06:45:14;;;;;;;5.35;3.28;;;15.70;90.00;;;;;;5010489;28;20045;-79
2022/05/22 06:47:41;;;;;;;5.78;3.30;;;15.80;90.40;;;;;;4996868;28;20061;-78
2022/05/22 06:50:11;;;;;;;5.63;3.50;;;15.90;90.40;;;;;;5015372;28;20094;-78
2022/05/22 06:52:38;;;;;;;6.03;3.10;;;16.00;90.40;;;;;;5012306;28;20258;-79
2022/05/22 06:55:05;;;;;;;7.13;3.45;;;16.10;90.50;;;;;;5021519;28;20047;-79
2022/05/22 06:57:31;;;;;;;5.45;3.40;;;16.20;90.50;;;;;;5012227;28;20057;-78
2022/05/22 06:59:58;;;;;;;6.15;3.22;;;16.30;90.60;;;;;;5031854;28;20041;-78
2022/05/22 07:02:27;;;;;;;6.88;3.65;;;16.50;90.60;;;;;;5016713;28;20079;-78
2022/05/22 07:04:55;;;;;;;4.40;3.13;;;16.60;90.70;;;;;;4991193;28;20036;-79
2022/05/22 07:07:21;;;;;;;5.88;3.10;;;16.70;91.10;;;;;;5019189;28;20528;-78
2022/05/22 07:09:48;;;;;;;4.68;3.30;;;16.80;90.80;;;;;;5005269;28;20100;-78
2022/05/22 07:12:15;;;;;;;5.45;3.30;;;17.00;90.70;;;;;;5014177;28;20033;-79
2022/05/22 07:14:42;;;;;;;7.50;3.47;;;17.10;90.60;;;;;;5000669;28;20560;-79
2022/05/22 07:17:10;;;;;;;5.47;2.90;;;17.20;90.60;;;;;;5034958;28;20060;-78
2022/05/22 07:19:37;;;;;;;5.65;2.90;;;17.30;90.50;;;;;;5004591;28;20024;-78
2022/05/22 07:22:05;;;;;;;5.13;3.10;;;17.50;90.80;;;;;;5012003;28;20021;-78
2022/05/22 07:24:31;;;;;;;6.50;3.08;;;17.60;90.70;;;;;;5006396;28;20041;-78
2022/05/22 07:26:57;;;;;;;4.30;2.77;;;17.80;90.80;;;;;;5025378;28;20226;-78
2022/05/22 07:29:23;;;;;;;4.95;2.92;;;17.90;90.80;;;;;;5035584;28;20090;-78
2022/05/22 07:31:49;;;;;;;4.82;2.72;;;18.00;90.70;;;;;;5008485;28;20064;-78
2022/05/22 07:34:14;;;;;;;5.40;2.50;;;18.20;90.80;;;;;;5045348;28;20400;-78
2022/05/22 07:36:40;;;;;;;5.47;2.78;;;18.30;90.80;;;;;;5004631;28;20036;-77
2022/05/22 07:39:06;;;;;;;3.90;2.30;;;18.50;90.80;;;;;;5034953;28;20481;-78
2022/05/22 07:41:32;;;;;;;3.72;2.72;;;18.60;90.90;;;;;;5022932;28;20465;-78
2022/05/22 07:43:59;;;;;;;7.28;2.70;;;18.80;91.20;;;;;;5032805;28;20040;-78
2022/05/22 07:46:25;;;;;;;4.47;2.30;;;19.00;91.50;;;;;;5023743;28;20025;-77
2022/05/22 07:48:51;;;;;;;7.88;2.47;;;19.30;91.80;;;;;;5004652;28;20034;-79
2022/05/22 07:51:18;;;;;;;4.15;2.17;;;19.60;92.00;;;;;;5023426;28;20048;-79
2022/05/22 07:53:43;;;;;;;4.28;2.17;;;19.90;91.70;;;;;;5030739;28;20024;-79
2022/05/22 07:56:09;;;;;;;3.77;1.70;;;20.20;91.60;;;;;;5026640;28;20040;-79
2022/05/22 07:58:35;;;;;;;3.63;1.70;;;20.50;91.50;;;;;;5020200;28;20037;-79
2022/05/22 08:01:02;;;;;;;3.25;1.55;;;20.70;91.10;;;;;;5021982;28;20474;-80
2022/05/22 08:03:28;;;;;;;3.60;1.60;;;21.00;91.00;;;;;;5031352;28;20041;-79
2022/05/22 08:05:55;;;;;;;4.63;1.58;;;21.30;91.10;;;;;;4996333;28;20037;-80
2022/05/22 08:08:24;;;;;;;4.15;1.75;;;21.60;91.20;;;;;;5015777;28;20067;-79
2022/05/22 08:10:53;;;;;;;6.05;1.77;;;22.00;91.40;;;;;;5028039;28;20645;-78
2022/05/22 08:13:19;;;;;;;3.30;1.67;;;22.40;91.80;;;;;;5012556;28;20095;-79
2022/05/22 08:15:45;;;;;;;4.65;1.85;;;22.90;91.90;;;;;;5006314;28;20235;-79
2022/05/22 08:18:11;;;;;;;4.00;2.10;;;23.40;91.60;;;;;;5009040;28;20127;-79
2022/05/22 08:20:39;;;;;;;3.07;1.90;;;23.90;91.10;;;;;;5024509;28;20025;-79
2022/05/22 08:23:08;;;;;;;4.47;1.90;;;24.50;90.50;;;;;;5030124;28;20171;-79
2022/05/22 08:25:35;;;;;;;2.67;2.00;;;25.00;89.20;;;;;;5047215;28;20044;-78
2022/05/22 08:28:01;;;;;;;5.00;2.08;;;25.60;88.50;;;;;;4976900;28;20045;-79
2022/05/22 08:30:29;;;;;;;3.73;1.97;;;26.10;88.20;;;;;;5010900;28;20381;-79
2022/05/22 08:32:55;;;;;;;5.68;2.20;;;26.50;86.50;;;;;;5025601;28;20048;-79
2022/05/22 08:35:27;;;;;;;3.08;1.73;;;26.90;86.40;;;;;;5008975;28;20378;-78
2022/05/22 08:37:53;;;;;;;5.57;1.83;;;27.40;84.00;;;;;;5015415;28;20060;-79
2022/05/22 08:40:22;;;;;;;4.03;1.95;;;27.70;83.70;;;;;;5005655;28;22564;-79
2022/05/22 08:43:02;;;;;;;3.78;1.80;;;28.10;81.40;;;;;;4998531;28;20469;-80
2022/05/22 08:45:43;;;;;;;3.75;1.90;;;28.40;77.00;;;;;;5019373;28;20504;-79
2022/05/22 08:48:32;;;;;;;5.65;1.98;;;28.80;76.80;;;;;;5016396;28;20293;-80
2022/05/22 08:50:59;;;;;;;3.57;2.00;;;29.10;73.30;;;;;;5012887;28;20056;-80
2022/05/22 08:53:36;;;;;;;3.63;2.10;;;29.40;80.30;;;;;;5035327;28;20032;-81
2022/05/22 08:58:59;;;;;;;3.95;2.03;;;30.00;79.10;;;;;;5028648;28;20044;-79
2022/05/22 09:01:43;;;;;;;4.68;2.20;;;30.30;76.10;;;;;;5007095;28;20493;-80
2022/05/22 09:04:25;;;;;;;4.03;2.00;;;30.60;75.00;;;;;;5024563;28;20033;-80
2022/05/22 09:07:18;;;;;;;4.40;2.20;;;30.80;76.80;;;;;;4992219;28;20091;-79
2022/05/22 09:09:48;;;;;;;3.78;2.00;;;31.10;73.50;;;;;;5014683;28;20409;-79
2022/05/22 09:12:43;;;;;;;4.82;2.42;;;31.40;77.60;;;;;;5004554;28;21460;-79
2022/05/22 09:15:31;;;;;;;4.32;2.20;;;31.70;74.10;;;;;;5009023;28;20773;-79
2022/05/22 09:18:11;;;;;;;4.13;2.53;;;31.90;72.70;;;;;;5007971;28;20045;-80
2022/05/22 09:20:47;;;;;;;3.55;2.30;;;32.20;75.10;;;;;;5020608;28;20045;-80
2022/05/22 09:23:31;;;;;;;4.60;2.58;;;32.40;73.60;;;;;;5002662;28;20042;-80
2022/05/22 09:26:08;;;;;;;4.47;2.10;;;32.60;69.60;;;;;;5020299;28;20029;-80
2022/05/22 09:28:39;;;;;;;4.63;2.72;;;32.80;74.10;;;;;;5014199;28;20033;-80
2022/05/22 09:31:36;;;;;;;5.20;2.30;;;33.00;76.50;;;;;;5020299;28;21068;-81
2022/05/22 09:34:15;;;;;;;4.88;2.53;;;33.10;69.10;;;;;;5029186;28;20162;-80
2022/05/22 09:37:19;;;;;;;5.97;2.97;;;33.30;70.90;;;;;;5042113;28;20043;-80
2022/05/22 09:40:12;;;;;;;2.97;2.25;;;33.40;67.50;;;;;;5001493;28;20052;-80
2022/05/22 09:42:46;;;;;;;3.50;2.40;;;33.60;68.40;;;;;;5012866;28;20436;-80
2022/05/22 09:45:33;;;;;;;5.53;2.80;;;33.80;70.90;;;;;;5031479;28;20690;-81
2022/05/22 09:48:23;;;;;;;4.78;2.38;;;33.90;66.80;;;;;;4995681;28;20159;-80
2022/05/22 09:50:49;;;;;;;5.13;2.75;;;34.00;69.20;;;;;;5009129;28;20098;-79
2022/05/22 09:53:37;;;;;;;3.20;2.27;;;34.10;73.90;;;;;;4997778;28;21472;-79
2022/05/22 09:56:26;;;;;;;4.40;2.70;;;34.10;73.60;;;;;;5008577;28;20034;-79
2022/05/22 09:59:03;;;;;;;3.25;2.40;;;34.20;65.90;;;;;;4964907;28;20037;-80
2022/05/22 10:01:33;;;;;;;4.80;2.42;;;34.20;72.70;;;;;;5001247;28;20138;-79
2022/05/22 10:03:59;;;;;;;5.32;2.75;;;34.30;72.70;;;;;;5025837;28;21672;-81
2022/05/22 10:06:37;;;;;;;3.80;2.07;;;34.30;72.20;;;;;;5030172;28;20067;-80
2022/05/22 10:09:21;;;;;;;3.65;2.45;;;34.30;72.30;;;;;;4996996;28;21270;-82
2022/05/22 10:11:56;;;;;;;3.58;2.40;;;34.30;66.80;;;;;;5006627;28;20029;-79
2022/05/22 10:14:58;;;;;;;3.53;2.00;;;34.40;66.50;;;;;;5008607;28;20467;-80
2022/05/22 10:17:51;;;;;;;4.13;2.20;;;34.50;64.70;;;;;;5006925;28;20785;-79
2022/05/22 10:20:40;;;;;;;3.25;2.40;;;34.60;67.60;;;;;;5011655;28;20035;-80
2022/05/22 10:23:25;;;;;;;3.88;2.17;;;34.70;67.70;;;;;;5029864;28;21324;-80
2022/05/22 10:26:26;;;;;;;5.05;2.95;;;34.80;64.70;;;;;;4996693;28;20509;-79
2022/05/22 10:29:22;;;;;;;3.60;1.90;;;34.80;65.60;;;;;;5020196;28;20037;-81
2022/05/22 10:32:10;;;;;;;3.83;2.03;;;35.00;62.90;;;;;;5003430;28;20028;-80
2022/05/22 10:34:58;;;;;;;3.30;2.65;;;35.10;65.20;;;;;;5001032;28;20041;-79
2022/05/22 10:37:40;;;;;;;3.90;2.10;;;35.20;67.60;;;;;;5040723;28;20047;-79
2022/05/22 10:40:15;;;;;;;3.80;2.45;;;35.20;65.10;;;;;;5014421;28;20161;-79
2022/05/22 10:42:45;;;;;;;3.35;2.40;;;35.30;64.20;;;;;;5026674;28;20041;-79
2022/05/22 10:45:33;;;;;;;2.83;2.20;;;35.40;68.60;;;;;;5021415;28;20120;-79
2022/05/22 10:48:21;;;;;;;3.33;2.60;;;35.40;61.80;;;;;;5012945;28;20043;-79
2022/05/22 10:51:11;;;;;;;3.17;2.30;;;35.40;58.90;;;;;;5018549;28;20485;-80
2022/05/22 10:53:50;;;;;;;3.42;2.22;;;35.40;60.90;;;;;;5033135;28;20040;-80
2022/05/22 10:56:18;;;;;;;2.83;2.00;;;35.60;61.90;;;;;;5004912;28;20040;-80
2022/05/22 10:59:02;;;;;;;3.30;2.10;;;35.60;65.60;;;;;;5009493;28;20041;-79
2022/05/22 11:01:34;;;;;;;3.03;2.20;;;35.60;60.80;;;;;;5029408;28;20107;-80
2022/05/22 11:04:10;;;;;;;3.35;2.08;;;35.70;65.50;;;;;;5026137;28;20111;-81
2022/05/22 11:06:58;;;;;;;3.33;1.65;;;35.70;58.00;;;;;;5034622;28;20120;-80
2022/05/22 11:09:29;;;;;;;3.58;2.17;;;35.70;62.20;;;;;;5011929;28;20492;-80
2022/05/22 11:12:09;;;;;;;3.40;2.10;;;35.70;62.80;;;;;;4995485;28;20142;-80
2022/05/22 11:14:35;;;;;;;3.13;2.10;;;35.80;57.80;;;;;;5032026;28;20032;-79
2022/05/22 11:17:09;;;;;;;3.83;1.90;;;35.70;62.10;;;;;;5014777;28;20381;-79
2022/05/22 11:19:39;;;;;;;4.05;2.60;;;35.80;57.10;;;;;;5045467;28;20551;-81
2022/05/22 11:22:19;;;;;;;2.97;2.30;;;35.80;58.90;;;;;;5005129;28;20121;-80
2022/05/22 11:25:28;;;;;;;2.50;1.90;;;35.80;55.00;;;;;;5036300;28;20113;-80
2022/05/22 11:28:07;;;;;;;3.50;2.03;;;35.90;57.20;;;;;;5020660;28;20035;-80
2022/05/22 11:31:06;;;;;;;3.40;1.90;;;35.90;56.50;;;;;;5018116;28;20048;-80
2022/05/22 11:33:49;;;;;;;2.83;1.70;;;35.90;53.80;;;;;;5019363;28;20091;-80
2022/05/22 11:36:43;;;;;;;2.35;1.73;;;35.90;55.40;;;;;;5032367;28;20037;-80
2022/05/22 11:39:30;;;;;;;2.30;1.80;;;36.00;52.40;;;;;;5005375;28;20035;-80
2022/05/22 11:42:19;;;;;;;2.88;1.98;;;36.00;59.20;;;;;;5011635;28;20021;-79
2022/05/22 11:45:14;;;;;;;2.42;1.90;;;36.10;55.50;;;;;;5017533;28;20044;-79
2022/05/22 11:48:05;;;;;;;2.42;1.70;;;36.10;53.20;;;;;;5028483;28;20044;-81
2022/05/22 11:50:37;;;;;;;2.00;1.73;;;36.10;53.20;;;;;;5045800;28;20028;-80
2022/05/22 11:53:30;;;;;;;2.73;2.03;;;36.20;58.90;;;;;;5014404;28;20043;-79
2022/05/22 11:55:58;;;;;;;2.28;1.88;;;36.30;54.50;;;;;;5019812;28;20582;-81
2022/05/22 11:58:39;;;;;;;2.75;1.77;;;36.50;56.80;;;;;;5014296;28;20048;-80
2022/05/22 12:01:15;;;;;;;2.70;1.80;;;36.60;52.90;;;;;;5025904;28;20305;-79
2022/05/22 12:04:09;;;;;;;2.85;1.90;;;36.70;53.00;;;;;;5027717;28;20059;-79
2022/05/22 12:06:41;;;;;;;3.83;2.20;;;36.80;51.30;;;;;;5011767;28;20060;-83
2022/05/22 12:09:11;;;;;;;3.42;2.45;;;36.80;57.20;;;;;;5004749;28;21122;-82
2022/05/22 12:12:09;;;;;;;4.07;1.95;;;36.80;56.40;;;;;;5021021;28;20044;-80
2022/05/22 12:15:01;;;;;;;3.35;2.15;;;36.80;50.30;;;;;;4992252;28;20061;-79
2022/05/22 12:17:38;;;;;;;2.92;1.95;;;36.90;50.00;;;;;;5017360;28;20036;-79
2022/05/22 12:20:29;;;;;;;2.77;1.77;;;36.90;52.60;;;;;;5010820;28;20102;-80
2022/05/22 12:23:25;;;;;;;3.72;2.17;;;36.90;52.30;;;;;;5030793;28;20486;-80
2022/05/22 12:26:03;;;;;;;3.60;1.92;;;36.90;49.80;;;;;;5017993;28;20446;-82
2022/05/22 12:28:32;;;;;;;3.45;2.10;;;36.80;50.10;;;;;;5019452;28;20033;-80
2022/05/22 12:30:59;;;;;;;2.22;1.80;;;36.70;51.30;;;;;;5001809;28;20726;-80
2022/05/22 12:33:30;;;;;;;3.73;2.10;;;36.70;53.60;;;;;;5005252;28;20037;-81
2022/05/22 12:35:58;;;;;;;3.25;2.03;;;36.60;52.10;;;;;;5006209;28;20044;-80
2022/05/22 12:38:24;;;;;;;3.00;2.10;;;36.60;52.90;;;;;;5001417;28;20032;-80
2022/05/22 12:41:21;;;;;;;2.75;2.00;;;36.60;54.10;;;;;;5003613;28;20051;-80
2022/05/22 12:43:48;;;;;;;4.07;1.90;;;36.70;48.10;;;;;;5042419;28;20044;-80
2022/05/22 12:46:15;;;;;;;2.83;2.00;;;36.70;53.90;;;;;;5012792;28;20063;-79
2022/05/22 12:48:45;;;;;;;3.03;2.00;;;36.60;53.20;;;;;;5044431;28;20210;-80
2022/05/22 12:51:18;;;;;;;2.45;1.80;;;36.60;52.50;;;;;;5014521;28;20340;-80
2022/05/22 12:53:51;;;;;;;2.78;1.90;;;36.60;49.10;;;;;;5025229;28;20104;-81
2022/05/22 12:56:22;;;;;;;3.00;1.87;;;36.50;50.20;;;;;;5021697;28;20282;-80
2022/05/22 12:58:59;;;;;;;2.97;1.98;;;36.50;48.20;;;;;;4990335;28;20046;-80
2022/05/22 13:01:38;;;;;;;2.72;1.80;;;36.50;49.50;;;;;;4997520;28;20033;-81
2022/05/22 13:04:16;;;;;;;2.88;1.80;;;36.40;47.60;;;;;;5020081;28;20099;-80
2022/05/22 13:06:48;;;;;;;2.45;1.90;;;36.50;47.20;;;;;;5010120;28;20270;-81
2022/05/22 13:09:41;;;;;;;3.63;2.07;;;36.60;47.70;;;;;;5017414;28;20083;-80
2022/05/22 13:12:13;;;;;;;2.55;1.73;;;36.60;46.60;;;;;;4986932;28;20037;-80
2022/05/22 13:14:47;;;;;;;3.00;1.90;;;36.70;50.10;;;;;;5019925;28;20116;-80
2022/05/22 13:17:18;;;;;;;2.55;1.90;;;36.70;50.30;;;;;;5016596;28;20309;-80
2022/05/22 13:19:53;;;;;;;2.50;1.92;;;36.80;51.60;;;;;;5045243;28;20067;-81